Vihari Weather



Vihari's Current Weather

Temprature 12.37o light rain

light rain

Rain: 144 %

Min Temprature12.37o
Max Temprature12.37o
Humidity86
Wind Speed4.68 m/h
Sun Rise07:03:55
Sun Set17:42:11
Current Time: 27-Jan-2020 18:31:20
Lat/Lon: 30.03, 72.35




Vihari's Geo Location



Vihari's Weather Forecast

Time Overall Temp Min Temp Max Temp Humidity Wind Speed Rain
27-Jan-2020 (Mon)
20:00:00 light rain 12.370 12.370 12.370 86 4.68 m/h 144 %
23:00:00 light rain 10.810 10.810 10.810 91 3.29 m/h 19 %
28-Jan-2020 (Tue)
02:00:00 light rain 10.360 10.360 10.360 93 4 m/h 19 %
05:00:00 scattered clouds 11.330 11.330 11.330 90 3.65 m/h 0 %
08:00:00 broken clouds 11.770 11.770 11.770 86 3.96 m/h 0 %
11:00:00 broken clouds 15.130 15.130 15.130 73 3.8 m/h 0 %
14:00:00 light rain 17.270 17.270 17.270 59 4.23 m/h 31 %
17:00:00 light rain 16.580 16.580 16.580 56 3.94 m/h 6 %
20:00:00 few clouds 12.260 12.260 12.260 74 2.85 m/h 0 %
23:00:00 clear sky 10.470 10.470 10.470 90 1.59 m/h 0 %
29-Jan-2020 (Wed)
02:00:00 clear sky 9.600 9.600 9.600 92 1.33 m/h 0 %
05:00:00 clear sky 9.110 9.110 9.110 92 2 m/h 0 %
08:00:00 few clouds 9.960 9.960 9.960 86 1.32 m/h 0 %
11:00:00 few clouds 16.330 16.330 16.330 52 2.71 m/h 0 %
14:00:00 clear sky 19.910 19.910 19.910 33 3.16 m/h 0 %
17:00:00 clear sky 18.570 18.570 18.570 36 2.68 m/h 0 %
20:00:00 clear sky 13.800 13.800 13.800 50 3.03 m/h 0 %
23:00:00 clear sky 11.480 11.480 11.480 61 2.43 m/h 0 %
30-Jan-2020 (Thu)
02:00:00 clear sky 10.370 10.370 10.370 66 1.74 m/h 0 %
05:00:00 clear sky 9.970 9.970 9.970 66 1.69 m/h 0 %
08:00:00 clear sky 10.660 10.660 10.660 64 1.08 m/h 0 %
11:00:00 scattered clouds 17.220 17.220 17.220 37 2.19 m/h 0 %
14:00:00 clear sky 20.200 20.200 20.200 23 3.11 m/h 0 %
17:00:00 clear sky 18.460 18.460 18.460 26 2.15 m/h 0 %
20:00:00 clear sky 13.580 13.580 13.580 34 2.27 m/h 0 %
23:00:00 clear sky 11.430 11.430 11.430 38 1.1 m/h 0 %
31-Jan-2020 (Fri)
02:00:00 clear sky 10.740 10.740 10.740 45 1.79 m/h 0 %
05:00:00 clear sky 10.210 10.210 10.210 50 2.41 m/h 0 %
08:00:00 clear sky 11.030 11.030 11.030 49 1.02 m/h 0 %
11:00:00 clear sky 18.290 18.290 18.290 29 1.39 m/h 0 %
14:00:00 scattered clouds 20.800 20.800 20.800 25 2.75 m/h 0 %
17:00:00 broken clouds 19.480 19.480 19.480 28 1.83 m/h 0 %
20:00:00 light rain 14.120 14.120 14.120 41 1.58 m/h 13 %
23:00:00 clear sky 12.790 12.790 12.790 44 2.46 m/h 0 %
01-Feb-2020 (Sat)
02:00:00 clear sky 11.430 11.430 11.430 45 2.71 m/h 0 %
05:00:00 clear sky 10.520 10.520 10.520 45 2.03 m/h 0 %
08:00:00 clear sky 11.190 11.190 11.190 45 1.79 m/h 0 %
11:00:00 clear sky 18.810 18.810 18.810 28 2.19 m/h 0 %
14:00:00 clear sky 21.590 21.590 21.590 20 2.78 m/h 0 %
17:00:00 clear sky 19.840 19.840 19.840 23 1.77 m/h 0 %

Famous Cities (61)